Bartonia, Indiana
Current Conditions -  °F | °C
As of 9:55 PM on Saturday 20 Dec 2014 (Local Time) from KVES Reporting Station
Overcast Overcast  
Wind Chill: 27°   Ceiling: 3300
Heat Index: 27°   Visibility: 7mi
Dew Point: 27°   Wind: 0mph
Humidity: 100%   Direction: NA
Pressure: 30.27"   Gusts: NA
Location:  40.2091°N, 84.8536°W
Report Text: KVES 210255Z AUTO 00000KT 7SM OVC033 M03/M03 A3027 RMK AO2
Loading
Personal Weather Stations






























Interactive Weather Map New forecast layout! Learn more

10-Day Weather Forecast

Advertisements
Track Severe Weather on mobile